Terminal Aerodrome Forecast
Issued by NWS

Current Version | Previous Version | Text Only | Print | Product List | Glossary On
Versions: 1 2 3 4 5 6 7 8 9 10 11 12 13 14 15 16 17
000
FTUS43 KILX 282337
TAFDEC
TAF
KDEC 282337Z 2900/2924 33011KT P6SM OVC060
     FM291200 35010KT P6SM OVC020
     FM291400 36012G20KT P6SM VCSH BKN015
     FM292200 01013KT P6SM OVC030=

USA.gov is the U.S. government's official web portal to all federal, state and local government web resources and services.